sensor_id;sensor_type;location;lat;lon;timestamp;pressure;altitude;pressure_sealevel;temperature;humidity
35419;BME280;21525;41.240;16.500;2023-11-21T00:00:19;100906.44;;;20.37;77.46
35419;BME280;21525;41.240;16.500;2023-11-21T00:02:45;100900.75;;;20.62;76.57
35419;BME280;21525;41.240;16.500;2023-11-21T00:05:12;100900.34;;;20.53;77.54
35419;BME280;21525;41.240;16.500;2023-11-21T00:07:40;100899.19;;;20.58;76.89
35419;BME280;21525;41.240;16.500;2023-11-21T00:10:06;100908.19;;;20.71;76.22
35419;BME280;21525;41.240;16.500;2023-11-21T00:12:34;100901.22;;;20.86;75.09
35419;BME280;21525;41.240;16.500;2023-11-21T00:15:00;100898.25;;;20.76;75.50
35419;BME280;21525;41.240;16.500;2023-11-21T00:17:27;100894.38;;;20.49;76.72
35419;BME280;21525;41.240;16.500;2023-11-21T00:19:53;100899.25;;;20.57;76.55
35419;BME280;21525;41.240;16.500;2023-11-21T00:22:19;100895.78;;;20.39;78.55
35419;BME280;21525;41.240;16.500;2023-11-21T00:24:46;100887.38;;;20.48;76.96
35419;BME280;21525;41.240;16.500;2023-11-21T00:27:13;100892.78;;;20.28;77.23
35419;BME280;21525;41.240;16.500;2023-11-21T00:29:40;100895.13;;;20.34;77.98
35419;BME280;21525;41.240;16.500;2023-11-21T00:32:06;100891.25;;;20.58;76.69
35419;BME280;21525;41.240;16.500;2023-11-21T00:34:32;100888.28;;;20.12;79.26
35419;BME280;21525;41.240;16.500;2023-11-21T00:36:58;100887.19;;;20.34;77.73
35419;BME280;21525;41.240;16.500;2023-11-21T00:39:24;100885.88;;;20.60;76.55
35419;BME280;21525;41.240;16.500;2023-11-21T00:41:51;100885.66;;;20.64;76.18
35419;BME280;21525;41.240;16.500;2023-11-21T00:44:18;100886.03;;;20.22;79.57
35419;BME280;21525;41.240;16.500;2023-11-21T00:46:43;100880.22;;;20.50;78.87
35419;BME280;21525;41.240;16.500;2023-11-21T00:49:09;100872.91;;;20.72;77.31
35419;BME280;21525;41.240;16.500;2023-11-21T00:51:35;100869.34;;;20.89;76.49
35419;BME280;21525;41.240;16.500;2023-11-21T00:54:01;100872.22;;;20.85;75.56
35419;BME280;21525;41.240;16.500;2023-11-21T00:56:27;100864.03;;;20.73;75.72
35419;BME280;21525;41.240;16.500;2023-11-21T00:58:53;100867.09;;;20.82;75.69
35419;BME280;21525;41.240;16.500;2023-11-21T01:01:20;100864.09;;;20.39;77.63
35419;BME280;21525;41.240;16.500;2023-11-21T01:03:48;100863.44;;;20.34;79.77
35419;BME280;21525;41.240;16.500;2023-11-21T01:06:15;100858.53;;;20.61;78.07
35419;BME280;21525;41.240;16.500;2023-11-21T01:08:43;100862.03;;;20.61;76.96
35419;BME280;21525;41.240;16.500;2023-11-21T01:11:10;100860.41;;;20.59;77.38
35419;BME280;21525;41.240;16.500;2023-11-21T01:13:38;100852.59;;;20.40;78.72
35419;BME280;21525;41.240;16.500;2023-11-21T01:16:05;100854.41;;;20.55;77.75
35419;BME280;21525;41.240;16.500;2023-11-21T01:18:37;100845.06;;;20.65;77.49
35419;BME280;21525;41.240;16.500;2023-11-21T01:21:03;100849.75;;;20.26;79.13
35419;BME280;21525;41.240;16.500;2023-11-21T01:23:29;100842.38;;;20.15;80.05
35419;BME280;21525;41.240;16.500;2023-11-21T01:25:56;100839.97;;;20.28;79.56
35419;BME280;21525;41.240;16.500;2023-11-21T01:28:22;100842.94;;;20.04;80.70
35419;BME280;21525;41.240;16.500;2023-11-21T01:30:49;100833.44;;;20.35;79.88
35419;BME280;21525;41.240;16.500;2023-11-21T01:33:15;100835.63;;;20.27;79.61
35419;BME280;21525;41.240;16.500;2023-11-21T01:35:44;100830.88;;;20.33;79.64
35419;BME280;21525;41.240;16.500;2023-11-21T01:38:12;100828.31;;;20.14;80.32
35419;BME280;21525;41.240;16.500;2023-11-21T01:40:38;100832.75;;;20.14;80.77
35419;BME280;21525;41.240;16.500;2023-11-21T01:43:04;100826.88;;;20.43;80.13
35419;BME280;21525;41.240;16.500;2023-11-21T01:45:30;100820.84;;;20.23;80.08
35419;BME280;21525;41.240;16.500;2023-11-21T01:48:00;100822.47;;;20.25;80.33
35419;BME280;21525;41.240;16.500;2023-11-21T01:50:26;100812.06;;;20.22;79.14
35419;BME280;21525;41.240;16.500;2023-11-21T01:52:53;100816.81;;;20.50;78.60
35419;BME280;21525;41.240;16.500;2023-11-21T01:55:19;100805.75;;;20.59;77.48
35419;BME280;21525;41.240;16.500;2023-11-21T01:57:46;100807.63;;;20.57;78.06
35419;BME280;21525;41.240;16.500;2023-11-21T02:00:12;100811.34;;;20.70;76.45
35419;BME280;21525;41.240;16.500;2023-11-21T02:02:48;100804.63;;;20.30;77.44
35419;BME280;21525;41.240;16.500;2023-11-21T02:05:15;100797.88;;;20.75;75.48
35419;BME280;21525;41.240;16.500;2023-11-21T02:07:45;100791.03;;;20.38;76.33
35419;BME280;21525;41.240;16.500;2023-11-21T02:10:14;100798.09;;;20.20;77.95
35419;BME280;21525;41.240;16.500;2023-11-21T02:12:41;100789.94;;;20.25;77.38
35419;BME280;21525;41.240;16.500;2023-11-21T02:15:17;100784.91;;;20.37;77.58
35419;BME280;21525;41.240;16.500;2023-11-21T02:17:47;100781.69;;;20.48;75.70
35419;BME280;21525;41.240;16.500;2023-11-21T02:20:17;100777.44;;;20.28;75.67
35419;BME280;21525;41.240;16.500;2023-11-21T02:22:53;100776.19;;;20.68;73.83
35419;BME280;21525;41.240;16.500;2023-11-21T02:25:30;100775.31;;;20.52;73.81
35419;BME280;21525;41.240;16.500;2023-11-21T02:27:57;100775.13;;;20.55;73.90
35419;BME280;21525;41.240;16.500;2023-11-21T02:30:23;100771.25;;;20.62;73.07
35419;BME280;21525;41.240;16.500;2023-11-21T02:32:59;100764.56;;;20.55;73.18
35419;BME280;21525;41.240;16.500;2023-11-21T02:35:26;100771.44;;;20.25;75.03
35419;BME280;21525;41.240;16.500;2023-11-21T02:37:52;100757.56;;;20.54;74.20
35419;BME280;21525;41.240;16.500;2023-11-21T02:40:18;100755.81;;;20.86;71.79
35419;BME280;21525;41.240;16.500;2023-11-21T02:42:46;100765.06;;;20.29;73.53
35419;BME280;21525;41.240;16.500;2023-11-21T02:45:19;100762.06;;;20.69;71.47
35419;BME280;21525;41.240;16.500;2023-11-21T02:47:46;100762.09;;;20.52;71.65
35419;BME280;21525;41.240;16.500;2023-11-21T02:50:13;100767.41;;;20.68;71.90
35419;BME280;21525;41.240;16.500;2023-11-21T02:52:39;100762.00;;;20.54;71.76
35419;BME280;21525;41.240;16.500;2023-11-21T02:55:07;100758.63;;;20.83;70.57
35419;BME280;21525;41.240;16.500;2023-11-21T02:57:33;100758.91;;;20.78;70.58
35419;BME280;21525;41.240;16.500;2023-11-21T02:59:59;100745.94;;;20.90;68.84
35419;BME280;21525;41.240;16.500;2023-11-21T03:02:25;100743.25;;;20.58;70.50
35419;BME280;21525;41.240;16.500;2023-11-21T03:04:51;100741.34;;;20.93;69.01
35419;BME280;21525;41.240;16.500;2023-11-21T03:07:18;100740.91;;;20.85;68.62
35419;BME280;21525;41.240;16.500;2023-11-21T03:09:45;100740.41;;;20.78;69.19
35419;BME280;21525;41.240;16.500;2023-11-21T03:12:11;100735.47;;;20.72;68.89
35419;BME280;21525;41.240;16.500;2023-11-21T03:14:39;100741.25;;;20.95;67.99
35419;BME280;21525;41.240;16.500;2023-11-21T03:17:04;100738.41;;;20.82;67.85
35419;BME280;21525;41.240;16.500;2023-11-21T03:19:31;100737.81;;;20.61;68.46
35419;BME280;21525;41.240;16.500;2023-11-21T03:21:56;100729.72;;;20.64;67.92
35419;BME280;21525;41.240;16.500;2023-11-21T03:24:23;100729.41;;;20.70;67.54
35419;BME280;21525;41.240;16.500;2023-11-21T03:26:49;100725.72;;;20.89;66.34
35419;BME280;21525;41.240;16.500;2023-11-21T03:29:17;100718.97;;;20.52;67.95
35419;BME280;21525;41.240;16.500;2023-11-21T03:31:43;100720.00;;;20.65;67.29
35419;BME280;21525;41.240;16.500;2023-11-21T03:34:27;100728.53;;;20.37;68.68
35419;BME280;21525;41.240;16.500;2023-11-21T03:36:54;100721.72;;;20.66;67.41
35419;BME280;21525;41.240;16.500;2023-11-21T03:39:20;100719.50;;;20.74;66.75
35419;BME280;21525;41.240;16.500;2023-11-21T03:41:46;100715.31;;;20.54;67.88
35419;BME280;21525;41.240;16.500;2023-11-21T03:44:13;100722.63;;;20.49;68.06
35419;BME280;21525;41.240;16.500;2023-11-21T03:46:39;100710.56;;;20.76;66.47
35419;BME280;21525;41.240;16.500;2023-11-21T03:49:05;100713.53;;;20.86;65.63
35419;BME280;21525;41.240;16.500;2023-11-21T03:51:30;100717.34;;;20.80;65.33
35419;BME280;21525;41.240;16.500;2023-11-21T03:53:56;100714.91;;;20.77;65.81
35419;BME280;21525;41.240;16.500;2023-11-21T03:56:22;100714.44;;;20.38;67.20
35419;BME280;21525;41.240;16.500;2023-11-21T03:58:48;100713.31;;;20.09;68.82
35419;BME280;21525;41.240;16.500;2023-11-21T04:01:21;100716.78;;;20.91;65.58
35419;BME280;21525;41.240;16.500;2023-11-21T04:03:48;100708.00;;;20.75;64.92
35419;BME280;21525;41.240;16.500;2023-11-21T04:06:14;100711.56;;;20.58;65.31
35419;BME280;21525;41.240;16.500;2023-11-21T04:08:39;100707.31;;;20.87;64.17
35419;BME280;21525;41.240;16.500;2023-11-21T04:11:05;100707.38;;;20.86;63.72
35419;BME280;21525;41.240;16.500;2023-11-21T04:13:31;100706.22;;;20.75;64.11
35419;BME280;21525;41.240;16.500;2023-11-21T04:15:57;100703.53;;;21.23;62.28
35419;BME280;21525;41.240;16.500;2023-11-21T04:18:22;100703.78;;;21.18;61.71
35419;BME280;21525;41.240;16.500;2023-11-21T04:20:48;100697.50;;;21.21;62.13
35419;BME280;21525;41.240;16.500;2023-11-21T04:23:14;100709.59;;;21.09;62.06
35419;BME280;21525;41.240;16.500;2023-11-21T04:25:40;100698.00;;;21.11;61.61
35419;BME280;21525;41.240;16.500;2023-11-21T04:28:06;100701.66;;;21.40;61.03
35419;BME280;21525;41.240;16.500;2023-11-21T04:30:32;100702.44;;;21.11;61.08
35419;BME280;21525;41.240;16.500;2023-11-21T04:32:58;100711.31;;;21.10;61.24
35419;BME280;21525;41.240;16.500;2023-11-21T04:35:24;100704.75;;;20.86;62.37
35419;BME280;21525;41.240;16.500;2023-11-21T04:37:49;100712.50;;;21.04;61.85
35419;BME280;21525;41.240;16.500;2023-11-21T04:40:16;100703.00;;;21.16;61.55
35419;BME280;21525;41.240;16.500;2023-11-21T04:42:42;100708.59;;;20.96;62.03
35419;BME280;21525;41.240;16.500;2023-11-21T04:45:09;100708.75;;;20.93;62.09
35419;BME280;21525;41.240;16.500;2023-11-21T04:47:37;100707.47;;;21.00;62.07
35419;BME280;21525;41.240;16.500;2023-11-21T04:50:05;100702.44;;;20.79;62.84
35419;BME280;21525;41.240;16.500;2023-11-21T04:52:31;100695.81;;;20.72;63.29
35419;BME280;21525;41.240;16.500;2023-11-21T04:54:58;100703.66;;;20.74;63.79
35419;BME280;21525;41.240;16.500;2023-11-21T04:57:26;100703.81;;;20.87;62.99
35419;BME280;21525;41.240;16.500;2023-11-21T04:59:54;100700.22;;;20.88;62.76
35419;BME280;21525;41.240;16.500;2023-11-21T05:02:20;100696.91;;;20.84;62.96
35419;BME280;21525;41.240;16.500;2023-11-21T05:04:47;100696.97;;;20.83;62.90
35419;BME280;21525;41.240;16.500;2023-11-21T05:07:14;100696.38;;;20.93;62.60
35419;BME280;21525;41.240;16.500;2023-11-21T05:09:43;100691.94;;;20.94;62.28
35419;BME280;21525;41.240;16.500;2023-11-21T05:12:12;100691.88;;;20.95;61.81
35419;BME280;21525;41.240;16.500;2023-11-21T05:14:40;100688.78;;;21.03;62.20
35419;BME280;21525;41.240;16.500;2023-11-21T05:17:07;100692.53;;;20.83;62.82
35419;BME280;21525;41.240;16.500;2023-11-21T05:19:34;100696.47;;;21.07;62.24
35419;BME280;21525;41.240;16.500;2023-11-21T05:22:01;100693.94;;;20.74;62.69
35419;BME280;21525;41.240;16.500;2023-11-21T05:24:26;100687.44;;;20.80;63.69
35419;BME280;21525;41.240;16.500;2023-11-21T05:26:53;100690.59;;;20.87;63.30
35419;BME280;21525;41.240;16.500;2023-11-21T05:29:19;100693.06;;;20.58;63.73
35419;BME280;21525;41.240;16.500;2023-11-21T05:31:44;100685.13;;;20.42;64.85
35419;BME280;21525;41.240;16.500;2023-11-21T05:34:10;100689.81;;;20.37;65.31
35419;BME280;21525;41.240;16.500;2023-11-21T05:36:36;100691.84;;;20.48;66.01
35419;BME280;21525;41.240;16.500;2023-11-21T05:39:02;100692.50;;;20.36;66.81
35419;BME280;21525;41.240;16.500;2023-11-21T05:41:29;100683.19;;;20.46;65.43
35419;BME280;21525;41.240;16.500;2023-11-21T05:43:56;100682.81;;;20.52;65.58
35419;BME280;21525;41.240;16.500;2023-11-21T05:46:22;100675.09;;;20.32;66.77
35419;BME280;21525;41.240;16.500;2023-11-21T05:48:48;100673.72;;;20.25;66.37
35419;BME280;21525;41.240;16.500;2023-11-21T05:51:14;100671.94;;;20.42;65.63
35419;BME280;21525;41.240;16.500;2023-11-21T05:53:40;100670.22;;;20.24;66.36
35419;BME280;21525;41.240;16.500;2023-11-21T05:56:06;100669.88;;;20.63;64.76
35419;BME280;21525;41.240;16.500;2023-11-21T05:58:34;100666.47;;;20.61;64.62
35419;BME280;21525;41.240;16.500;2023-11-21T06:00:59;100669.28;;;20.58;64.28
35419;BME280;21525;41.240;16.500;2023-11-21T06:03:25;100673.19;;;20.51;64.64
35419;BME280;21525;41.240;16.500;2023-11-21T06:05:51;100665.56;;;20.29;64.84
35419;BME280;21525;41.240;16.500;2023-11-21T06:08:17;100666.66;;;20.74;63.56
35419;BME280;21525;41.240;16.500;2023-11-21T06:10:43;100668.78;;;20.67;63.69
35419;BME280;21525;41.240;16.500;2023-11-21T06:13:09;100664.91;;;20.89;61.95
35419;BME280;21525;41.240;16.500;2023-11-21T06:15:36;100660.16;;;20.64;63.16
35419;BME280;21525;41.240;16.500;2023-11-21T06:18:02;100657.78;;;20.75;62.78
35419;BME280;21525;41.240;16.500;2023-11-21T06:20:27;100655.66;;;21.27;61.16
35419;BME280;21525;41.240;16.500;2023-11-21T06:25:19;100655.31;;;21.33;59.76
35419;BME280;21525;41.240;16.500;2023-11-21T06:27:46;100653.22;;;21.83;59.08
35419;BME280;21525;41.240;16.500;2023-11-21T06:30:13;100648.38;;;21.61;59.04
35419;BME280;21525;41.240;16.500;2023-11-21T06:32:41;100644.16;;;21.87;57.53
35419;BME280;21525;41.240;16.500;2023-11-21T06:35:08;100638.69;;;22.18;58.06
35419;BME280;21525;41.240;16.500;2023-11-21T06:37:37;100624.13;;;23.98;52.89
35419;BME280;21525;41.240;16.500;2023-11-21T06:40:03;100622.94;;;24.64;49.91
35419;BME280;21525;41.240;16.500;2023-11-21T06:42:30;100624.84;;;25.33;48.16
35419;BME280;21525;41.240;16.500;2023-11-21T06:44:57;100619.25;;;26.50;46.18
35419;BME280;21525;41.240;16.500;2023-11-21T06:47:23;100625.72;;;27.64;43.44
35419;BME280;21525;41.240;16.500;2023-11-21T06:49:51;100608.03;;;28.33;41.50
35419;BME280;21525;41.240;16.500;2023-11-21T06:52:18;100610.59;;;29.80;39.92
35419;BME280;21525;41.240;16.500;2023-11-21T06:54:45;100605.19;;;29.89;38.76
35419;BME280;21525;41.240;16.500;2023-11-21T06:57:11;100607.03;;;29.42;38.50
35419;BME280;21525;41.240;16.500;2023-11-21T06:59:37;100596.84;;;30.74;37.39
35419;BME280;21525;41.240;16.500;2023-11-21T07:02:03;100596.59;;;30.23;37.15
35419;BME280;21525;41.240;16.500;2023-11-21T07:04:33;100591.47;;;31.54;36.07
35419;BME280;21525;41.240;16.500;2023-11-21T07:06:59;100597.09;;;31.17;35.70
35419;BME280;21525;41.240;16.500;2023-11-21T07:09:25;100591.03;;;31.15;36.11
35419;BME280;21525;41.240;16.500;2023-11-21T07:11:52;100587.91;;;32.05;34.93
35419;BME280;21525;41.240;16.500;2023-11-21T07:14:18;100580.28;;;31.66;35.68
35419;BME280;21525;41.240;16.500;2023-11-21T07:16:45;100581.53;;;31.46;35.80
35419;BME280;21525;41.240;16.500;2023-11-21T07:19:11;100584.56;;;31.07;36.36
35419;BME280;21525;41.240;16.500;2023-11-21T07:21:38;100573.38;;;30.77;36.71
35419;BME280;21525;41.240;16.500;2023-11-21T07:24:06;100585.19;;;29.08;38.51
35419;BME280;21525;41.240;16.500;2023-11-21T07:26:33;100585.22;;;28.29;40.63
35419;BME280;21525;41.240;16.500;2023-11-21T07:29:00;100584.38;;;27.68;41.64
35419;BME280;21525;41.240;16.500;2023-11-21T07:31:26;100589.28;;;27.42;42.57
35419;BME280;21525;41.240;16.500;2023-11-21T07:33:52;100590.38;;;26.55;43.51
35419;BME280;21525;41.240;16.500;2023-11-21T07:36:19;100582.72;;;26.93;43.76
35419;BME280;21525;41.240;16.500;2023-11-21T07:38:48;100587.38;;;27.33;42.73
35419;BME280;21525;41.240;16.500;2023-11-21T07:41:14;100578.72;;;27.40;42.88
35419;BME280;21525;41.240;16.500;2023-11-21T07:43:44;100575.78;;;27.64;42.21
35419;BME280;21525;41.240;16.500;2023-11-21T07:46:10;100573.41;;;27.61;42.65
35419;BME280;21525;41.240;16.500;2023-11-21T07:48:42;100571.63;;;27.30;43.35
35419;BME280;21525;41.240;16.500;2023-11-21T07:51:09;100573.50;;;27.39;43.28
35419;BME280;21525;41.240;16.500;2023-11-21T07:53:35;100575.13;;;27.30;43.55
35419;BME280;21525;41.240;16.500;2023-11-21T07:56:06;100576.22;;;26.86;44.99
35419;BME280;21525;41.240;16.500;2023-11-21T07:58:33;100579.63;;;26.77;44.75
35419;BME280;21525;41.240;16.500;2023-11-21T08:01:00;100565.91;;;26.38;45.71
35419;BME280;21525;41.240;16.500;2023-11-21T08:03:26;100569.91;;;26.44;46.13
35419;BME280;21525;41.240;16.500;2023-11-21T08:05:52;100560.84;;;26.02;46.56
35419;BME280;21525;41.240;16.500;2023-11-21T08:08:18;100560.59;;;26.38;46.05
35419;BME280;21525;41.240;16.500;2023-11-21T08:10:45;100562.78;;;26.22;46.25
35419;BME280;21525;41.240;16.500;2023-11-21T08:13:14;100560.19;;;26.54;45.80
35419;BME280;21525;41.240;16.500;2023-11-21T08:15:42;100553.66;;;26.47;45.68
35419;BME280;21525;41.240;16.500;2023-11-21T08:18:11;100553.91;;;26.44;45.46
35419;BME280;21525;41.240;16.500;2023-11-21T08:20:38;100556.78;;;26.63;45.20
35419;BME280;21525;41.240;16.500;2023-11-21T08:23:05;100548.47;;;26.77;44.88
35419;BME280;21525;41.240;16.500;2023-11-21T08:25:32;100545.28;;;26.52;45.36
35419;BME280;21525;41.240;16.500;2023-11-21T08:27:59;100554.44;;;26.27;46.54
35419;BME280;21525;41.240;16.500;2023-11-21T08:30:25;100549.34;;;26.01;46.99
35419;BME280;21525;41.240;16.500;2023-11-21T08:32:50;100546.91;;;26.21;46.81
35419;BME280;21525;41.240;16.500;2023-11-21T08:35:19;100556.88;;;25.85;47.71
35419;BME280;21525;41.240;16.500;2023-11-21T08:37:45;100552.19;;;26.54;46.29
35419;BME280;21525;41.240;16.500;2023-11-21T08:40:11;100546.09;;;26.63;46.42
35419;BME280;21525;41.240;16.500;2023-11-21T08:42:42;100543.69;;;26.60;46.19
35419;BME280;21525;41.240;16.500;2023-11-21T08:45:08;100536.97;;;26.66;45.87
35419;BME280;21525;41.240;16.500;2023-11-21T08:47:35;100534.56;;;26.31;46.33
35419;BME280;21525;41.240;16.500;2023-11-21T08:50:02;100536.97;;;26.23;46.15
35419;BME280;21525;41.240;16.500;2023-11-21T08:52:29;100527.28;;;26.22;46.29
35419;BME280;21525;41.240;16.500;2023-11-21T08:54:54;100524.31;;;26.47;45.75
35419;BME280;21525;41.240;16.500;2023-11-21T08:57:25;100530.09;;;26.63;45.39
35419;BME280;21525;41.240;16.500;2023-11-21T08:59:51;100532.44;;;26.57;45.04
35419;BME280;21525;41.240;16.500;2023-11-21T09:02:25;100531.50;;;26.67;44.57
35419;BME280;21525;41.240;16.500;2023-11-21T09:04:52;100527.16;;;26.66;44.64
35419;BME280;21525;41.240;16.500;2023-11-21T09:07:19;100529.69;;;26.25;44.66
35419;BME280;21525;41.240;16.500;2023-11-21T09:09:49;100519.56;;;26.62;44.67
35419;BME280;21525;41.240;16.500;2023-11-21T09:12:15;100515.78;;;26.21;45.20
35419;BME280;21525;41.240;16.500;2023-11-21T09:14:42;100514.44;;;26.27;45.26
35419;BME280;21525;41.240;16.500;2023-11-21T09:17:10;100507.94;;;26.84;44.54
35419;BME280;21525;41.240;16.500;2023-11-21T09:19:40;100506.69;;;26.88;44.31
35419;BME280;21525;41.240;16.500;2023-11-21T09:22:06;100506.09;;;26.63;44.54
35419;BME280;21525;41.240;16.500;2023-11-21T09:24:33;100503.84;;;27.00;44.35
35419;BME280;21525;41.240;16.500;2023-11-21T09:26:59;100498.72;;;27.08;44.25
35419;BME280;21525;41.240;16.500;2023-11-21T09:29:26;100495.63;;;26.92;44.47
35419;BME280;21525;41.240;16.500;2023-11-21T09:31:52;100489.00;;;27.07;44.14
35419;BME280;21525;41.240;16.500;2023-11-21T09:34:17;100483.97;;;26.72;44.39
35419;BME280;21525;41.240;16.500;2023-11-21T09:36:47;100483.59;;;26.98;44.19
35419;BME280;21525;41.240;16.500;2023-11-21T09:39:14;100480.50;;;27.44;43.76
35419;BME280;21525;41.240;16.500;2023-11-21T09:41:42;100475.09;;;27.34;43.55
35419;BME280;21525;41.240;16.500;2023-11-21T09:44:13;100470.84;;;27.22;43.83
35419;BME280;21525;41.240;16.500;2023-11-21T09:46:42;100468.72;;;26.95;44.13
35419;BME280;21525;41.240;16.500;2023-11-21T09:49:12;100464.19;;;26.54;44.29
35419;BME280;21525;41.240;16.500;2023-11-21T09:51:46;100454.69;;;27.03;44.11
35419;BME280;21525;41.240;16.500;2023-11-21T09:54:15;100451.56;;;26.56;44.75
35419;BME280;21525;41.240;16.500;2023-11-21T09:56:41;100449.22;;;27.25;43.18
35419;BME280;21525;41.240;16.500;2023-11-21T09:59:13;100446.38;;;27.57;42.78
35419;BME280;21525;41.240;16.500;2023-11-21T10:01:42;100451.88;;;26.84;43.97
35419;BME280;21525;41.240;16.500;2023-11-21T10:04:11;100442.28;;;27.93;42.29
35419;BME280;21525;41.240;16.500;2023-11-21T10:06:40;100439.91;;;27.90;42.60
35419;BME280;21525;41.240;16.500;2023-11-21T10:09:13;100430.25;;;27.68;43.69
35419;BME280;21525;41.240;16.500;2023-11-21T10:11:41;100431.22;;;28.36;42.65
35419;BME280;21525;41.240;16.500;2023-11-21T10:14:11;100430.00;;;27.71;43.62
35419;BME280;21525;41.240;16.500;2023-11-21T10:16:38;100425.31;;;27.64;43.82
35419;BME280;21525;41.240;16.500;2023-11-21T10:19:05;100430.91;;;27.21;44.37
35419;BME280;21525;41.240;16.500;2023-11-21T10:21:33;100426.25;;;27.93;43.43
35419;BME280;21525;41.240;16.500;2023-11-21T10:23:59;100430.63;;;28.14;43.20
35419;BME280;21525;41.240;16.500;2023-11-21T10:26:26;100434.84;;;28.64;42.46
35419;BME280;21525;41.240;16.500;2023-11-21T10:29:01;100422.41;;;29.02;41.53
35419;BME280;21525;41.240;16.500;2023-11-21T10:31:31;100423.72;;;29.25;40.79
35419;BME280;21525;41.240;16.500;2023-11-21T10:34:17;100416.06;;;29.50;40.12
35419;BME280;21525;41.240;16.500;2023-11-21T10:36:44;100423.03;;;28.19;41.44
35419;BME280;21525;41.240;16.500;2023-11-21T10:39:16;100417.13;;;28.83;41.01
35419;BME280;21525;41.240;16.500;2023-11-21T10:41:46;100423.31;;;28.73;40.82
35419;BME280;21525;41.240;16.500;2023-11-21T10:44:16;100417.16;;;28.44;41.98
35419;BME280;21525;41.240;16.500;2023-11-21T10:46:50;100409.50;;;28.68;41.75
35419;BME280;21525;41.240;16.500;2023-11-21T10:49:18;100395.56;;;28.74;41.43
35419;BME280;21525;41.240;16.500;2023-11-21T10:51:44;100401.94;;;28.54;41.78
35419;BME280;21525;41.240;16.500;2023-11-21T10:54:10;100398.84;;;28.49;41.68
35419;BME280;21525;41.240;16.500;2023-11-21T10:56:39;100398.66;;;27.83;42.47
35419;BME280;21525;41.240;16.500;2023-11-21T10:59:10;100386.03;;;28.43;41.26
35419;BME280;21525;41.240;16.500;2023-11-21T11:01:45;100386.00;;;28.62;41.34
35419;BME280;21525;41.240;16.500;2023-11-21T11:04:15;100385.06;;;29.00;41.48
35419;BME280;21525;41.240;16.500;2023-11-21T11:06:54;100396.56;;;28.64;41.77
35419;BME280;21525;41.240;16.500;2023-11-21T11:09:22;100391.06;;;28.85;41.39
35419;BME280;21525;41.240;16.500;2023-11-21T11:11:48;100394.44;;;28.87;40.94
35419;BME280;21525;41.240;16.500;2023-11-21T11:14:14;100398.41;;;28.34;41.25
35419;BME280;21525;41.240;16.500;2023-11-21T11:16:41;100384.72;;;28.86;40.38
35419;BME280;21525;41.240;16.500;2023-11-21T11:19:07;100380.22;;;28.86;40.31
35419;BME280;21525;41.240;16.500;2023-11-21T11:24:41;100372.59;;;28.62;40.92
35419;BME280;21525;41.240;16.500;2023-11-21T11:27:37;100376.25;;;28.81;40.61
35419;BME280;21525;41.240;16.500;2023-11-21T11:35:34;100383.22;;;28.35;40.81
35419;BME280;21525;41.240;16.500;2023-11-21T11:38:03;100373.34;;;28.55;40.42
35419;BME280;21525;41.240;16.500;2023-11-21T11:40:45;100371.41;;;28.94;40.47
35419;BME280;21525;41.240;16.500;2023-11-21T11:43:11;100376.19;;;28.34;40.93
35419;BME280;21525;41.240;16.500;2023-11-21T11:45:37;100373.94;;;28.29;40.87
35419;BME280;21525;41.240;16.500;2023-11-21T11:48:11;100372.91;;;27.72;41.29
35419;BME280;21525;41.240;16.500;2023-11-21T11:51:15;100370.13;;;28.41;40.55
35419;BME280;21525;41.240;16.500;2023-11-21T11:53:47;100364.78;;;28.41;39.99
35419;BME280;21525;41.240;16.500;2023-11-21T11:56:30;100363.53;;;28.26;40.52
35419;BME280;21525;41.240;16.500;2023-11-21T11:59:02;100369.28;;;28.41;40.33
35419;BME280;21525;41.240;16.500;2023-11-21T12:01:29;100356.59;;;28.53;40.27
35419;BME280;21525;41.240;16.500;2023-11-21T12:06:43;100356.56;;;28.62;40.24
35419;BME280;21525;41.240;16.500;2023-11-21T12:09:19;100354.00;;;28.70;40.02
35419;BME280;21525;41.240;16.500;2023-11-21T12:11:46;100351.41;;;28.41;40.49
35419;BME280;21525;41.240;16.500;2023-11-21T12:14:13;100349.59;;;28.23;40.52
35419;BME280;21525;41.240;16.500;2023-11-21T12:16:39;100346.22;;;28.21;40.87
35419;BME280;21525;41.240;16.500;2023-11-21T12:19:05;100332.13;;;28.38;40.40
35419;BME280;21525;41.240;16.500;2023-11-21T12:21:31;100340.84;;;27.72;41.78
35419;BME280;21525;41.240;16.500;2023-11-21T12:23:58;100335.78;;;28.18;41.18
35419;BME280;21525;41.240;16.500;2023-11-21T12:26:24;100334.66;;;27.91;41.78
35419;BME280;21525;41.240;16.500;2023-11-21T12:28:53;100332.25;;;27.69;41.74
35419;BME280;21525;41.240;16.500;2023-11-21T12:31:24;100324.81;;;28.01;41.76
35419;BME280;21525;41.240;16.500;2023-11-21T12:33:50;100319.59;;;28.09;41.60
35419;BME280;21525;41.240;16.500;2023-11-21T12:36:16;100318.63;;;27.91;41.53
35419;BME280;21525;41.240;16.500;2023-11-21T12:38:42;100315.38;;;28.17;41.23
35419;BME280;21525;41.240;16.500;2023-11-21T12:41:11;100313.53;;;28.07;41.80
35419;BME280;21525;41.240;16.500;2023-11-21T12:43:37;100307.78;;;27.73;41.88
35419;BME280;21525;41.240;16.500;2023-11-21T12:46:07;100304.53;;;27.70;42.37
35419;BME280;21525;41.240;16.500;2023-11-21T12:48:32;100301.19;;;27.87;41.93
35419;BME280;21525;41.240;16.500;2023-11-21T12:50:58;100294.63;;;27.22;42.54
35419;BME280;21525;41.240;16.500;2023-11-21T12:53:26;100296.31;;;27.23;42.76
35419;BME280;21525;41.240;16.500;2023-11-21T12:55:55;100302.50;;;27.33;42.28